sensor_id;sensor_type;location;lat;lon;timestamp;temperature;humidity
40534;DHT22;26233;51.894;10.192;2022-11-20T00:01:45;-0.40;39.10
40534;DHT22;26233;51.894;10.192;2022-11-20T00:04:12;-0.40;39.10
40534;DHT22;26233;51.894;10.192;2022-11-20T00:06:39;-0.40;39.10
40534;DHT22;26233;51.894;10.192;2022-11-20T00:09:09;-0.40;39.20
40534;DHT22;26233;51.894;10.192;2022-11-20T00:11:36;-0.40;39.20
40534;DHT22;26233;51.894;10.192;2022-11-20T00:14:03;-0.40;39.10
40534;DHT22;26233;51.894;10.192;2022-11-20T00:16:32;-0.40;39.10
40534;DHT22;26233;51.894;10.192;2022-11-20T00:18:59;-0.50;39.00
40534;DHT22;26233;51.894;10.192;2022-11-20T00:21:28;-0.50;39.00
40534;DHT22;26233;51.894;10.192;2022-11-20T00:23:56;-0.50;39.00
40534;DHT22;26233;51.894;10.192;2022-11-20T00:26:25;-0.50;39.10
40534;DHT22;26233;51.894;10.192;2022-11-20T00:28:54;-0.50;39.10
40534;DHT22;26233;51.894;10.192;2022-11-20T00:31:25;-0.60;39.10
40534;DHT22;26233;51.894;10.192;2022-11-20T00:33:54;-0.60;39.10
40534;DHT22;26233;51.894;10.192;2022-11-20T00:36:22;-0.60;39.20
40534;DHT22;26233;51.894;10.192;2022-11-20T00:38:52;-0.60;39.70
40534;DHT22;26233;51.894;10.192;2022-11-20T00:41:19;-0.50;39.20
40534;DHT22;26233;51.894;10.192;2022-11-20T00:43:46;-0.60;39.20
40534;DHT22;26233;51.894;10.192;2022-11-20T00:46:15;-0.50;39.20
40534;DHT22;26233;51.894;10.192;2022-11-20T00:48:43;-0.50;39.30
40534;DHT22;26233;51.894;10.192;2022-11-20T00:51:14;-0.50;39.30
40534;DHT22;26233;51.894;10.192;2022-11-20T00:53:49;-0.60;39.20
40534;DHT22;26233;51.894;10.192;2022-11-20T00:56:17;-0.50;39.30
40534;DHT22;26233;51.894;10.192;2022-11-20T00:58:47;-0.60;39.20
40534;DHT22;26233;51.894;10.192;2022-11-20T01:01:17;-0.60;39.20
40534;DHT22;26233;51.894;10.192;2022-11-20T01:03:46;-0.60;39.20
40534;DHT22;26233;51.894;10.192;2022-11-20T01:06:17;-0.60;39.20
40534;DHT22;26233;51.894;10.192;2022-11-20T01:08:46;-0.60;39.20
40534;DHT22;26233;51.894;10.192;2022-11-20T01:11:16;-0.60;39.20
40534;DHT22;26233;51.894;10.192;2022-11-20T01:13:45;-0.60;39.30
40534;DHT22;26233;51.894;10.192;2022-11-20T01:16:14;-0.60;39.30
40534;DHT22;26233;51.894;10.192;2022-11-20T01:18:44;-0.60;39.30
40534;DHT22;26233;51.894;10.192;2022-11-20T01:21:15;-0.60;39.20
40534;DHT22;26233;51.894;10.192;2022-11-20T01:23:45;-0.60;39.20
40534;DHT22;26233;51.894;10.192;2022-11-20T01:26:14;-0.60;39.20
40534;DHT22;26233;51.894;10.192;2022-11-20T01:28:43;-0.60;39.20
40534;DHT22;26233;51.894;10.192;2022-11-20T01:31:12;-0.60;39.70
40534;DHT22;26233;51.894;10.192;2022-11-20T01:33:41;-0.70;39.00
40534;DHT22;26233;51.894;10.192;2022-11-20T01:36:09;-0.70;39.00
40534;DHT22;26233;51.894;10.192;2022-11-20T01:38:39;-0.80;39.00
40534;DHT22;26233;51.894;10.192;2022-11-20T01:41:07;-0.80;39.10
40534;DHT22;26233;51.894;10.192;2022-11-20T01:43:34;-0.80;39.10
40534;DHT22;26233;51.894;10.192;2022-11-20T01:46:05;-0.80;39.20
40534;DHT22;26233;51.894;10.192;2022-11-20T01:48:43;-0.80;39.20
40534;DHT22;26233;51.894;10.192;2022-11-20T01:51:21;-0.80;39.30
40534;DHT22;26233;51.894;10.192;2022-11-20T01:53:54;-0.80;39.30
40534;DHT22;26233;51.894;10.192;2022-11-20T01:56:23;-0.80;39.30
40534;DHT22;26233;51.894;10.192;2022-11-20T01:58:53;-0.80;39.30
40534;DHT22;26233;51.894;10.192;2022-11-20T02:01:21;-0.80;39.20
40534;DHT22;26233;51.894;10.192;2022-11-20T02:03:50;-0.80;39.20
40534;DHT22;26233;51.894;10.192;2022-11-20T02:06:21;-0.80;39.80
40534;DHT22;26233;51.894;10.192;2022-11-20T02:08:52;-0.80;39.20
40534;DHT22;26233;51.894;10.192;2022-11-20T02:11:20;-0.80;39.20
40534;DHT22;26233;51.894;10.192;2022-11-20T02:13:47;-0.80;39.20
40534;DHT22;26233;51.894;10.192;2022-11-20T02:16:17;-0.80;39.20
40534;DHT22;26233;51.894;10.192;2022-11-20T02:18:47;-0.80;38.70
40534;DHT22;26233;51.894;10.192;2022-11-20T02:21:21;-0.90;39.10
40534;DHT22;26233;51.894;10.192;2022-11-20T02:24:07;-0.80;39.20
40534;DHT22;26233;51.894;10.192;2022-11-20T02:26:43;-0.90;39.20
40534;DHT22;26233;51.894;10.192;2022-11-20T02:29:15;-0.90;39.10
40534;DHT22;26233;51.894;10.192;2022-11-20T02:31:43;-0.90;39.00
40534;DHT22;26233;51.894;10.192;2022-11-20T02:34:13;-0.90;39.00
40534;DHT22;26233;51.894;10.192;2022-11-20T02:36:41;-0.90;39.00
40534;DHT22;26233;51.894;10.192;2022-11-20T02:39:11;-0.90;39.00
40534;DHT22;26233;51.894;10.192;2022-11-20T02:41:42;-1.00;39.00
40534;DHT22;26233;51.894;10.192;2022-11-20T02:44:09;-0.90;39.20
40534;DHT22;26233;51.894;10.192;2022-11-20T02:46:38;-1.00;39.10
40534;DHT22;26233;51.894;10.192;2022-11-20T02:49:05;-1.00;39.10
40534;DHT22;26233;51.894;10.192;2022-11-20T02:51:32;-1.00;39.10
40534;DHT22;26233;51.894;10.192;2022-11-20T02:53:59;-0.90;39.80
40534;DHT22;26233;51.894;10.192;2022-11-20T02:56:30;-0.90;39.20
40534;DHT22;26233;51.894;10.192;2022-11-20T02:58:58;-0.90;39.20
40534;DHT22;26233;51.894;10.192;2022-11-20T03:01:25;-1.00;39.10
40534;DHT22;26233;51.894;10.192;2022-11-20T03:03:52;-0.90;39.30
40534;DHT22;26233;51.894;10.192;2022-11-20T03:06:20;-0.90;39.30
40534;DHT22;26233;51.894;10.192;2022-11-20T03:08:47;-0.90;39.30
40534;DHT22;26233;51.894;10.192;2022-11-20T03:11:14;-0.90;39.20
40534;DHT22;26233;51.894;10.192;2022-11-20T03:13:43;-0.80;39.20
40534;DHT22;26233;51.894;10.192;2022-11-20T03:16:16;-0.80;39.20
40534;DHT22;26233;51.894;10.192;2022-11-20T03:18:44;-0.80;39.20
40534;DHT22;26233;51.894;10.192;2022-11-20T03:21:12;-0.80;39.20
40534;DHT22;26233;51.894;10.192;2022-11-20T03:23:42;-0.80;39.20
40534;DHT22;26233;51.894;10.192;2022-11-20T03:26:14;-0.80;39.20
40534;DHT22;26233;51.894;10.192;2022-11-20T03:28:47;-0.80;39.10
40534;DHT22;26233;51.894;10.192;2022-11-20T03:31:16;-0.80;39.10
40534;DHT22;26233;51.894;10.192;2022-11-20T03:33:44;-0.80;39.00
40534;DHT22;26233;51.894;10.192;2022-11-20T03:36:13;-0.90;38.90
40534;DHT22;26233;51.894;10.192;2022-11-20T03:38:41;-0.90;38.90
40534;DHT22;26233;51.894;10.192;2022-11-20T03:41:12;-0.90;39.00
40534;DHT22;26233;51.894;10.192;2022-11-20T03:43:40;-1.00;38.90
40534;DHT22;26233;51.894;10.192;2022-11-20T03:46:09;-1.00;39.00
40534;DHT22;26233;51.894;10.192;2022-11-20T03:48:36;-1.00;39.00
40534;DHT22;26233;51.894;10.192;2022-11-20T03:51:08;-1.00;39.20
40534;DHT22;26233;51.894;10.192;2022-11-20T03:53:36;-0.90;39.30
40534;DHT22;26233;51.894;10.192;2022-11-20T03:56:04;-0.90;39.30
40534;DHT22;26233;51.894;10.192;2022-11-20T03:58:33;-0.90;39.30
40534;DHT22;26233;51.894;10.192;2022-11-20T04:01:09;-0.80;39.40
40534;DHT22;26233;51.894;10.192;2022-11-20T04:03:39;-0.80;39.40
40534;DHT22;26233;51.894;10.192;2022-11-20T04:06:09;-0.80;39.20
40534;DHT22;26233;51.894;10.192;2022-11-20T04:08:38;-0.80;39.10
40534;DHT22;26233;51.894;10.192;2022-11-20T04:11:10;-0.80;39.00
40534;DHT22;26233;51.894;10.192;2022-11-20T04:13:38;-0.80;39.00
40534;DHT22;26233;51.894;10.192;2022-11-20T04:16:06;-0.80;39.10
40534;DHT22;26233;51.894;10.192;2022-11-20T04:18:35;-0.90;39.00
40534;DHT22;26233;51.894;10.192;2022-11-20T04:21:03;-0.90;38.90
40534;DHT22;26233;51.894;10.192;2022-11-20T04:23:31;-0.90;38.90
40534;DHT22;26233;51.894;10.192;2022-11-20T04:26:01;-1.00;38.80
40534;DHT22;26233;51.894;10.192;2022-11-20T04:28:29;-1.00;38.80
40534;DHT22;26233;51.894;10.192;2022-11-20T04:31:02;-1.00;38.80
40534;DHT22;26233;51.894;10.192;2022-11-20T04:33:30;-1.10;38.70
40534;DHT22;26233;51.894;10.192;2022-11-20T04:36:02;-1.10;38.80
40534;DHT22;26233;51.894;10.192;2022-11-20T04:38:29;-1.20;38.70
40534;DHT22;26233;51.894;10.192;2022-11-20T04:40:57;-1.20;38.80
40534;DHT22;26233;51.894;10.192;2022-11-20T04:43:25;-1.30;38.80
40534;DHT22;26233;51.894;10.192;2022-11-20T04:45:53;-1.30;38.80
40534;DHT22;26233;51.894;10.192;2022-11-20T04:48:21;-1.30;38.80
40534;DHT22;26233;51.894;10.192;2022-11-20T04:50:48;-1.30;38.80
40534;DHT22;26233;51.894;10.192;2022-11-20T04:53:16;-1.40;38.60
40534;DHT22;26233;51.894;10.192;2022-11-20T04:55:47;-1.40;38.70
40534;DHT22;26233;51.894;10.192;2022-11-20T04:58:14;-1.40;38.70
40534;DHT22;26233;51.894;10.192;2022-11-20T05:00:42;-1.50;38.60
40534;DHT22;26233;51.894;10.192;2022-11-20T05:03:09;-1.50;38.70
40534;DHT22;26233;51.894;10.192;2022-11-20T05:05:36;-1.50;38.80
40534;DHT22;26233;51.894;10.192;2022-11-20T05:08:04;-1.50;39.40
40534;DHT22;26233;51.894;10.192;2022-11-20T05:10:32;-1.50;38.90
40534;DHT22;26233;51.894;10.192;2022-11-20T05:12:59;-1.50;38.80
40534;DHT22;26233;51.894;10.192;2022-11-20T05:15:26;-1.60;38.70
40534;DHT22;26233;51.894;10.192;2022-11-20T05:17:53;-1.60;38.80
40534;DHT22;26233;51.894;10.192;2022-11-20T05:20:20;-1.60;38.90
40534;DHT22;26233;51.894;10.192;2022-11-20T05:22:47;-1.50;39.00
40534;DHT22;26233;51.894;10.192;2022-11-20T05:25:14;-1.50;39.00
40534;DHT22;26233;51.894;10.192;2022-11-20T05:27:43;-1.60;38.90
40534;DHT22;26233;51.894;10.192;2022-11-20T05:30:11;-1.60;38.90
40534;DHT22;26233;51.894;10.192;2022-11-20T05:32:39;-1.60;38.90
40534;DHT22;26233;51.894;10.192;2022-11-20T05:35:07;-1.60;39.10
40534;DHT22;26233;51.894;10.192;2022-11-20T05:37:34;-1.50;39.20
40534;DHT22;26233;51.894;10.192;2022-11-20T05:40:01;-1.40;39.40
40534;DHT22;26233;51.894;10.192;2022-11-20T05:42:30;-1.40;39.90
40534;DHT22;26233;51.894;10.192;2022-11-20T05:44:59;-1.40;39.30
40534;DHT22;26233;51.894;10.192;2022-11-20T05:47:31;-1.20;39.40
40534;DHT22;26233;51.894;10.192;2022-11-20T05:49:59;-1.30;39.20
40534;DHT22;26233;51.894;10.192;2022-11-20T05:52:28;-1.30;39.00
40534;DHT22;26233;51.894;10.192;2022-11-20T05:54:56;-1.30;38.90
40534;DHT22;26233;51.894;10.192;2022-11-20T05:57:23;-1.30;38.90
40534;DHT22;26233;51.894;10.192;2022-11-20T05:59:50;-1.30;38.90
40534;DHT22;26233;51.894;10.192;2022-11-20T06:02:19;-1.40;38.70
40534;DHT22;26233;51.894;10.192;2022-11-20T06:04:46;-1.40;38.80
40534;DHT22;26233;51.894;10.192;2022-11-20T06:07:14;-1.40;38.90
40534;DHT22;26233;51.894;10.192;2022-11-20T06:09:41;-1.40;38.90
40534;DHT22;26233;51.894;10.192;2022-11-20T06:12:08;-1.40;38.90
40534;DHT22;26233;51.894;10.192;2022-11-20T06:14:37;-1.50;38.90
40534;DHT22;26233;51.894;10.192;2022-11-20T06:17:04;-1.50;38.90
40534;DHT22;26233;51.894;10.192;2022-11-20T06:19:32;-1.50;38.80
40534;DHT22;26233;51.894;10.192;2022-11-20T06:22:00;-1.50;38.80
40534;DHT22;26233;51.894;10.192;2022-11-20T06:24:29;-1.50;38.80
40534;DHT22;26233;51.894;10.192;2022-11-20T06:26:56;-1.60;38.70
40534;DHT22;26233;51.894;10.192;2022-11-20T06:29:23;-1.60;38.80
40534;DHT22;26233;51.894;10.192;2022-11-20T06:31:50;-1.60;38.80
40534;DHT22;26233;51.894;10.192;2022-11-20T06:34:17;-1.60;38.90
40534;DHT22;26233;51.894;10.192;2022-11-20T06:36:46;-1.60;39.00
40534;DHT22;26233;51.894;10.192;2022-11-20T06:39:13;-1.60;39.00
40534;DHT22;26233;51.894;10.192;2022-11-20T06:41:40;-1.60;39.00
40534;DHT22;26233;51.894;10.192;2022-11-20T06:44:07;-1.50;39.00
40534;DHT22;26233;51.894;10.192;2022-11-20T06:46:34;-1.50;39.10
40534;DHT22;26233;51.894;10.192;2022-11-20T06:49:01;-1.50;39.10
40534;DHT22;26233;51.894;10.192;2022-11-20T06:51:28;-1.50;39.10
40534;DHT22;26233;51.894;10.192;2022-11-20T06:54:01;-1.50;39.10
40534;DHT22;26233;51.894;10.192;2022-11-20T06:56:28;-1.40;39.10
40534;DHT22;26233;51.894;10.192;2022-11-20T06:58:55;-1.40;39.10
40534;DHT22;26233;51.894;10.192;2022-11-20T07:01:22;-1.40;39.10
40534;DHT22;26233;51.894;10.192;2022-11-20T07:03:50;-1.40;39.10
40534;DHT22;26233;51.894;10.192;2022-11-20T07:06:17;-1.40;39.10
40534;DHT22;26233;51.894;10.192;2022-11-20T07:08:44;-1.40;39.20
40534;DHT22;26233;51.894;10.192;2022-11-20T07:11:13;-1.30;39.30
40534;DHT22;26233;51.894;10.192;2022-11-20T07:13:40;-1.30;39.30
40534;DHT22;26233;51.894;10.192;2022-11-20T07:16:08;-1.20;39.40
40534;DHT22;26233;51.894;10.192;2022-11-20T07:18:36;-1.20;39.40
40534;DHT22;26233;51.894;10.192;2022-11-20T07:21:04;-1.20;39.40
40534;DHT22;26233;51.894;10.192;2022-11-20T07:23:32;-1.10;39.50
40534;DHT22;26233;51.894;10.192;2022-11-20T07:26:03;-1.00;39.50
40534;DHT22;26233;51.894;10.192;2022-11-20T07:28:32;-0.90;39.60
40534;DHT22;26233;51.894;10.192;2022-11-20T07:30:59;-1.00;40.00
40534;DHT22;26233;51.894;10.192;2022-11-20T07:33:26;-0.90;39.50
40534;DHT22;26233;51.894;10.192;2022-11-20T07:35:53;-0.80;39.70
40534;DHT22;26233;51.894;10.192;2022-11-20T07:38:20;-0.70;39.90
40534;DHT22;26233;51.894;10.192;2022-11-20T07:40:47;-0.60;40.20
40534;DHT22;26233;51.894;10.192;2022-11-20T07:43:15;-0.40;40.40
40534;DHT22;26233;51.894;10.192;2022-11-20T07:45:43;-0.20;40.70
40534;DHT22;26233;51.894;10.192;2022-11-20T07:48:10;0.00;40.90
40534;DHT22;26233;51.894;10.192;2022-11-20T07:50:37;0.30;41.10
40534;DHT22;26233;51.894;10.192;2022-11-20T07:53:05;0.60;41.20
40534;DHT22;26233;51.894;10.192;2022-11-20T07:55:32;0.80;41.30
40534;DHT22;26233;51.894;10.192;2022-11-20T07:58:00;1.10;41.20
40534;DHT22;26233;51.894;10.192;2022-11-20T08:00:27;1.20;40.70
40534;DHT22;26233;51.894;10.192;2022-11-20T08:02:55;1.30;40.20
40534;DHT22;26233;51.894;10.192;2022-11-20T08:05:22;1.40;39.90
40534;DHT22;26233;51.894;10.192;2022-11-20T08:07:49;1.40;39.70
40534;DHT22;26233;51.894;10.192;2022-11-20T08:10:17;1.40;39.50
40534;DHT22;26233;51.894;10.192;2022-11-20T08:12:44;1.50;39.50
40534;DHT22;26233;51.894;10.192;2022-11-20T08:15:30;1.40;39.40
40534;DHT22;26233;51.894;10.192;2022-11-20T08:18:03;1.40;39.40
40534;DHT22;26233;51.894;10.192;2022-11-20T08:20:31;1.30;39.30
40534;DHT22;26233;51.894;10.192;2022-11-20T08:22:59;1.30;39.50
40534;DHT22;26233;51.894;10.192;2022-11-20T08:25:27;1.40;39.70
40534;DHT22;26233;51.894;10.192;2022-11-20T08:27:57;1.50;40.10
40534;DHT22;26233;51.894;10.192;2022-11-20T08:30:25;1.60;40.50
40534;DHT22;26233;51.894;10.192;2022-11-20T08:32:52;1.80;41.00
40534;DHT22;26233;51.894;10.192;2022-11-20T08:35:23;2.10;41.40
40534;DHT22;26233;51.894;10.192;2022-11-20T08:37:50;2.40;41.60
40534;DHT22;26233;51.894;10.192;2022-11-20T08:40:17;2.80;42.10
40534;DHT22;26233;51.894;10.192;2022-11-20T08:42:47;3.10;42.20
40534;DHT22;26233;51.894;10.192;2022-11-20T08:45:16;3.50;42.30
40534;DHT22;26233;51.894;10.192;2022-11-20T08:47:44;4.00;42.60
40534;DHT22;26233;51.894;10.192;2022-11-20T08:50:13;4.50;43.10
40534;DHT22;26233;51.894;10.192;2022-11-20T08:52:42;4.90;43.30
40534;DHT22;26233;51.894;10.192;2022-11-20T08:55:10;5.50;43.30
40534;DHT22;26233;51.894;10.192;2022-11-20T08:57:37;5.90;43.00
40534;DHT22;26233;51.894;10.192;2022-11-20T09:00:07;6.40;42.80
40534;DHT22;26233;51.894;10.192;2022-11-20T09:02:36;6.60;42.00
40534;DHT22;26233;51.894;10.192;2022-11-20T09:05:04;6.90;41.60
40534;DHT22;26233;51.894;10.192;2022-11-20T09:07:31;7.10;41.20
40534;DHT22;26233;51.894;10.192;2022-11-20T09:10:00;7.30;41.20
40534;DHT22;26233;51.894;10.192;2022-11-20T09:12:27;7.50;41.30
40534;DHT22;26233;51.894;10.192;2022-11-20T09:14:54;7.70;41.30
40534;DHT22;26233;51.894;10.192;2022-11-20T09:17:21;7.80;40.90
40534;DHT22;26233;51.894;10.192;2022-11-20T09:19:48;7.90;40.50
40534;DHT22;26233;51.894;10.192;2022-11-20T09:22:15;8.00;39.90
40534;DHT22;26233;51.894;10.192;2022-11-20T09:24:42;7.90;39.30
40534;DHT22;26233;51.894;10.192;2022-11-20T09:27:13;7.80;39.10
40534;DHT22;26233;51.894;10.192;2022-11-20T09:29:40;7.70;38.80
40534;DHT22;26233;51.894;10.192;2022-11-20T09:32:09;7.70;38.90
40534;DHT22;26233;51.894;10.192;2022-11-20T09:34:36;7.60;38.50
40534;DHT22;26233;51.894;10.192;2022-11-20T09:37:03;7.40;38.60
40534;DHT22;26233;51.894;10.192;2022-11-20T09:39:31;7.40;38.80
40534;DHT22;26233;51.894;10.192;2022-11-20T09:42:11;7.30;39.00
40534;DHT22;26233;51.894;10.192;2022-11-20T09:44:52;7.30;38.90
40534;DHT22;26233;51.894;10.192;2022-11-20T09:47:37;7.30;38.70
40534;DHT22;26233;51.894;10.192;2022-11-20T09:50:26;7.20;38.30
40534;DHT22;26233;51.894;10.192;2022-11-20T09:53:11;7.00;38.10
40534;DHT22;26233;51.894;10.192;2022-11-20T09:55:39;6.90;38.20
40534;DHT22;26233;51.894;10.192;2022-11-20T09:58:15;6.80;38.30
40534;DHT22;26233;51.894;10.192;2022-11-20T10:00:44;6.70;38.20
40534;DHT22;26233;51.894;10.192;2022-11-20T10:03:19;6.60;38.60
40534;DHT22;26233;51.894;10.192;2022-11-20T10:05:54;6.60;38.70
40534;DHT22;26233;51.894;10.192;2022-11-20T10:08:23;6.60;38.80
40534;DHT22;26233;51.894;10.192;2022-11-20T10:11:00;6.50;38.50
40534;DHT22;26233;51.894;10.192;2022-11-20T10:13:39;6.40;38.20
40534;DHT22;26233;51.894;10.192;2022-11-20T10:16:21;6.30;38.00
40534;DHT22;26233;51.894;10.192;2022-11-20T10:19:07;6.10;37.70
40534;DHT22;26233;51.894;10.192;2022-11-20T10:21:49;6.00;37.40
40534;DHT22;26233;51.894;10.192;2022-11-20T10:30:37;5.20;36.90
40534;DHT22;26233;51.894;10.192;2022-11-20T10:33:16;4.90;36.90
40534;DHT22;26233;51.894;10.192;2022-11-20T10:35:49;4.60;36.90
40534;DHT22;26233;51.894;10.192;2022-11-20T10:38:21;4.30;36.80
40534;DHT22;26233;51.894;10.192;2022-11-20T10:40:53;4.10;37.00
40534;DHT22;26233;51.894;10.192;2022-11-20T10:43:44;3.90;37.00
40534;DHT22;26233;51.894;10.192;2022-11-20T10:46:17;3.70;37.20
40534;DHT22;26233;51.894;10.192;2022-11-20T10:48:48;3.60;37.30
40534;DHT22;26233;51.894;10.192;2022-11-20T10:51:21;3.50;37.40
40534;DHT22;26233;51.894;10.192;2022-11-20T10:54:07;3.40;37.40
40534;DHT22;26233;51.894;10.192;2022-11-20T10:56:46;3.30;37.50
40534;DHT22;26233;51.894;10.192;2022-11-20T10:59:33;3.20;37.50
40534;DHT22;26233;51.894;10.192;2022-11-20T11:02:20;3.20;37.50
40534;DHT22;26233;51.894;10.192;2022-11-20T11:04:50;3.10;37.50
40534;DHT22;26233;51.894;10.192;2022-11-20T11:07:22;3.00;37.60
40534;DHT22;26233;51.894;10.192;2022-11-20T11:09:55;3.00;37.60
40534;DHT22;26233;51.894;10.192;2022-11-20T11:12:24;2.90;37.50
40534;DHT22;26233;51.894;10.192;2022-11-20T11:14:53;2.90;37.90
40534;DHT22;26233;51.894;10.192;2022-11-20T11:17:28;3.00;38.60
40534;DHT22;26233;51.894;10.192;2022-11-20T11:20:04;3.10;39.20
40534;DHT22;26233;51.894;10.192;2022-11-20T11:22:34;3.30;39.70
40534;DHT22;26233;51.894;10.192;2022-11-20T11:25:23;3.60;40.10
40534;DHT22;26233;51.894;10.192;2022-11-20T11:27:57;3.90;40.20
40534;DHT22;26233;51.894;10.192;2022-11-20T11:30:28;4.20;40.50
40534;DHT22;26233;51.894;10.192;2022-11-20T11:33:09;4.50;40.50
40534;DHT22;26233;51.894;10.192;2022-11-20T11:35:44;4.70;40.30
40534;DHT22;26233;51.894;10.192;2022-11-20T11:38:15;4.90;40.10
40534;DHT22;26233;51.894;10.192;2022-11-20T11:40:44;5.20;40.20
40534;DHT22;26233;51.894;10.192;2022-11-20T11:43:20;5.30;40.10
40534;DHT22;26233;51.894;10.192;2022-11-20T11:46:30;5.40;39.90
40534;DHT22;26233;51.894;10.192;2022-11-20T11:49:01;5.60;39.90
40534;DHT22;26233;51.894;10.192;2022-11-20T11:51:45;5.80;40.20
40534;DHT22;26233;51.894;10.192;2022-11-20T11:54:24;5.90;39.90
40534;DHT22;26233;51.894;10.192;2022-11-20T11:56:56;6.00;39.60
40534;DHT22;26233;51.894;10.192;2022-11-20T11:59:28;6.10;39.50
40534;DHT22;26233;51.894;10.192;2022-11-20T12:02:15;6.10;39.30
40534;DHT22;26233;51.894;10.192;2022-11-20T12:05:00;6.10;39.20
40534;DHT22;26233;51.894;10.192;2022-11-20T12:07:38;6.10;38.90
40534;DHT22;26233;51.894;10.192;2022-11-20T12:10:18;6.10;39.00
40534;DHT22;26233;51.894;10.192;2022-11-20T12:12:52;6.10;39.00
40534;DHT22;26233;51.894;10.192;2022-11-20T12:15:30;6.20;39.10
40534;DHT22;26233;51.894;10.192;2022-11-20T12:18:00;6.20;38.80
40534;DHT22;26233;51.894;10.192;2022-11-20T12:20:32;6.20;39.00
40534;DHT22;26233;51.894;10.192;2022-11-20T12:23:05;6.30;39.00
40534;DHT22;26233;51.894;10.192;2022-11-20T12:25:36;6.40;38.90
40534;DHT22;26233;51.894;10.192;2022-11-20T12:28:23;6.60;39.20
40534;DHT22;26233;51.894;10.192;2022-11-20T12:37:20;6.90;38.90
40534;DHT22;26233;51.894;10.192;2022-11-20T12:39:56;6.90;38.70
40534;DHT22;26233;51.894;10.192;2022-11-20T12:42:46;7.00;38.90
40534;DHT22;26233;51.894;10.192;2022-11-20T12:46:07;7.00;38.50
40534;DHT22;26233;51.894;10.192;2022-11-20T12:48:42;7.10;38.20
40534;DHT22;26233;51.894;10.192;2022-11-20T12:51:47;7.10;38.50
40534;DHT22;26233;51.894;10.192;2022-11-20T12:54:33;7.10;38.30
40534;DHT22;26233;51.894;10.192;2022-11-20T12:57:10;7.10;38.30
40534;DHT22;26233;51.894;10.192;2022-11-20T12:59:58;7.20;38.30
40534;DHT22;26233;51.894;10.192;2022-11-20T13:02:35;7.20;38.20
40534;DHT22;26233;51.894;10.192;2022-11-20T13:05:27;7.20;38.40
40534;DHT22;26233;51.894;10.192;2022-11-20T13:08:00;7.30;38.30
40534;DHT22;26233;51.894;10.192;2022-11-20T13:10:35;7.30;38.40
40534;DHT22;26233;51.894;10.192;2022-11-20T13:13:13;7.30;38.00
40534;DHT22;26233;51.894;10.192;2022-11-20T13:15:50;7.30;37.90
40534;DHT22;26233;51.894;10.192;2022-11-20T13:18:21;7.30;37.90
40534;DHT22;26233;51.894;10.192;2022-11-20T13:20:49;7.30;37.90
40534;DHT22;26233;51.894;10.192;2022-11-20T13:23:24;7.20;37.80
40534;DHT22;26233;51.894;10.192;2022-11-20T13:26:05;7.20;37.70
40534;DHT22;26233;51.894;10.192;2022-11-20T13:28:33;7.10;37.30
40534;DHT22;26233;51.894;10.192;2022-11-20T13:31:00;7.10;37.80
40534;DHT22;26233;51.894;10.192;2022-11-20T13:33:31;7.10;37.80
40534;DHT22;26233;51.894;10.192;2022-11-20T13:36:01;7.10;37.80
40534;DHT22;26233;51.894;10.192;2022-11-20T13:38:43;7.00;37.70
40534;DHT22;26233;51.894;10.192;2022-11-20T13:41:23;7.00;37.40
40534;DHT22;26233;51.894;10.192;2022-11-20T13:44:05;6.90;37.40
40534;DHT22;26233;51.894;10.192;2022-11-20T13:46:40;6.90;37.70
40534;DHT22;26233;51.894;10.192;2022-11-20T13:49:10;6.90;37.70
40534;DHT22;26233;51.894;10.192;2022-11-20T13:51:48;6.90;37.70
40534;DHT22;26233;51.894;10.192;2022-11-20T13:54:51;6.90;37.70
40534;DHT22;26233;51.894;10.192;2022-11-20T14:00:21;6.70;37.10
40534;DHT22;26233;51.894;10.192;2022-11-20T14:02:59;6.70;37.30
40534;DHT22;26233;51.894;10.192;2022-11-20T14:05:32;6.50;36.70
40534;DHT22;26233;51.894;10.192;2022-11-20T14:08:14;6.40;37.00
40534;DHT22;26233;51.894;10.192;2022-11-20T14:10:48;6.30;36.90
40534;DHT22;26233;51.894;10.192;2022-11-20T14:13:18;6.10;36.90
40534;DHT22;26233;51.894;10.192;2022-11-20T14:15:46;6.10;37.00
40534;DHT22;26233;51.894;10.192;2022-11-20T14:18:15;6.00;37.10
40534;DHT22;26233;51.894;10.192;2022-11-20T14:20:47;5.90;37.10
40534;DHT22;26233;51.894;10.192;2022-11-20T14:23:23;5.80;37.00
40534;DHT22;26233;51.894;10.192;2022-11-20T14:25:52;5.70;36.70
40534;DHT22;26233;51.894;10.192;2022-11-20T14:28:27;5.70;37.00
40534;DHT22;26233;51.894;10.192;2022-11-20T14:30:56;5.60;36.90
40534;DHT22;26233;51.894;10.192;2022-11-20T14:33:25;5.50;36.70
40534;DHT22;26233;51.894;10.192;2022-11-20T14:35:54;5.30;36.60
40534;DHT22;26233;51.894;10.192;2022-11-20T14:38:25;5.20;36.50
40534;DHT22;26233;51.894;10.192;2022-11-20T14:40:53;5.00;36.30
40534;DHT22;26233;51.894;10.192;2022-11-20T14:43:26;4.90;36.40
40534;DHT22;26233;51.894;10.192;2022-11-20T14:45:59;4.80;36.40
40534;DHT22;26233;51.894;10.192;2022-11-20T14:48:32;4.70;36.50
40534;DHT22;26233;51.894;10.192;2022-11-20T14:51:02;4.60;36.50
40534;DHT22;26233;51.894;10.192;2022-11-20T14:53:29;4.50;37.10
40534;DHT22;26233;51.894;10.192;2022-11-20T14:55:57;4.40;36.50
40534;DHT22;26233;51.894;10.192;2022-11-20T14:58:29;4.30;36.50
40534;DHT22;26233;51.894;10.192;2022-11-20T15:01:00;4.30;36.60
40534;DHT22;26233;51.894;10.192;2022-11-20T15:03:39;4.20;36.60
40534;DHT22;26233;51.894;10.192;2022-11-20T15:06:10;4.10;36.50
40534;DHT22;26233;51.894;10.192;2022-11-20T15:08:38;4.00;36.50
40534;DHT22;26233;51.894;10.192;2022-11-20T15:11:16;4.00;36.50
40534;DHT22;26233;51.894;10.192;2022-11-20T15:13:46;3.90;36.50
40534;DHT22;26233;51.894;10.192;2022-11-20T15:16:18;3.90;36.60
40534;DHT22;26233;51.894;10.192;2022-11-20T15:18:48;3.80;36.50
40534;DHT22;26233;51.894;10.192;2022-11-20T15:21:17;3.70;36.40
40534;DHT22;26233;51.894;10.192;2022-11-20T15:23:46;3.70;36.50
40534;DHT22;26233;51.894;10.192;2022-11-20T15:26:15;3.60;36.50
40534;DHT22;26233;51.894;10.192;2022-11-20T15:28:48;3.50;36.50
40534;DHT22;26233;51.894;10.192;2022-11-20T15:31:17;3.50;36.50
40534;DHT22;26233;51.894;10.192;2022-11-20T15:33:48;3.40;36.50
40534;DHT22;26233;51.894;10.192;2022-11-20T15:36:17;3.30;36.50
40534;DHT22;26233;51.894;10.192;2022-11-20T15:38:47;3.30;36.50
40534;DHT22;26233;51.894;10.192;2022-11-20T15:41:15;3.20;36.60
40534;DHT22;26233;51.894;10.192;2022-11-20T15:43:42;3.10;36.60
40534;DHT22;26233;51.894;10.192;2022-11-20T15:46:12;3.10;36.60
40534;DHT22;26233;51.894;10.192;2022-11-20T15:48:43;3.10;36.60
40534;DHT22;26233;51.894;10.192;2022-11-20T15:51:21;3.00;36.60
40534;DHT22;26233;51.894;10.192;2022-11-20T15:53:50;2.90;36.60
40534;DHT22;26233;51.894;10.192;2022-11-20T15:56:18;2.90;36.70
40534;DHT22;26233;51.894;10.192;2022-11-20T15:58:45;2.90;36.80
40534;DHT22;26233;51.894;10.192;2022-11-20T16:01:15;2.80;36.70
40534;DHT22;26233;51.894;10.192;2022-11-20T16:03:43;2.80;36.80